Runaway Bay, Texas
Current Conditions -  °F | °C
As of 3:55 AM on Friday 19 Dec 2014 (Local Time) from KXBP Reporting Station
Overcast Overcast  
Wind Chill:   Ceiling: 500
Heat Index:   Visibility: 7mi
Dew Point:   Wind: 9mph
Humidity: 100%   Direction: 50°NE
Pressure: 30.16"   Gusts: NA
Location:  33.1691°N, 97.8246°W
Report Text: KXBP 190955Z AUTO 05008KT 7SM OVC005 07/07 A3016 RMK AO2 T00660066
Loading
Personal Weather Stations






























Interactive Weather Map New forecast layout! Learn more

10-Day Weather Forecast

Advertisements
Track Severe Weather on mobile